Tiempo atmosférico en la estación meteorológica de Teguise, Las Palmas (19 m.)



Fecha
DESCASC
Temp. máxima en grados centígrados (hora)
DESCASC
Temp. mínima en grados centígrados (hora)
DESCASC
Temp. media en grados centígrados
DESCASC
Racha de viento máxima en m/sg (hora)
DESCASC
Velocidad máxima media en intervalos de 10 minutos(hora)
DESCASC
Precipitaciones diarias en mm
DESCASC
Precipitaciones de 00:00 a 06:00 en mm
DESCASC
Precipitaciones de 06:00 a 12:00 en mm
DESCASC
Precipitaciones de 12:00 a 18:00 en mm
DESCASC
Precipitaciones de 18:00 a 24:00 en mm
DESCASC
02-08-2020 27.7 (13:40) 22.4 (03:40) 25.1 14.17 (13:10) 10 (13:10) 0 0 0 0 0
01-08-2020 27.5 (15:50) 21.5 (07:20) 24.5 -- (--) -- (--) 0 0 0 0 0
31-07-2020 26.3 (14:40) 21.2 (03:50) 23.8 9.44 (14:40) 6.11 (19:20) 0 0 0 0 0
30-07-2020 26.2 (13:30) 21.3 (00:00) 23.8 -- (--) -- (--) 0 0 0 0 0
29-07-2020 26.9 (13:20) 21.8 (00:00) 24.3 -- (--) -- (--) 0 0 0 0 0
28-07-2020 26.3 (13:50) 21.6 (00:00) 23.9 -- (--) -- (--) 0 0 0 0 0
27-07-2020 26.3 (15:50) 21.2 (00:00) 23.8 -- (--) -- (--) 0 0 0 0 0
26-07-2020 26.3 (16:00) 21.8 (00:00) 24 -- (--) -- (--) 0 0 0 0 0
25-07-2020 26.1 (15:00) 21.1 (00:00) 23.6 11.67 (19:00) 8.33 (19:20) 0 0 0 0 0
24-07-2020 26.6 (14:50) 21.4 (00:00) 24 11.11 (07:00) 8.61 (11:50) 0 0 0 0 0
23-07-2020 25.7 (15:40) 21.4 (00:00) 23.6 12.5 (12:20) 8.89 (14:20) 0 0 0 0 0
22-07-2020 26.7 (13:00) 21.7 (00:00) 24.2 11.67 (15:10) 8.61 (11:00) 0 0 0 0 0
21-07-2020 26.6 (14:10) 21.3 (00:00) 23.9 -- (--) -- (--) 0 0 0 0 0
20-07-2020 26.8 (14:50) 21.8 (00:00) 24.3 -- (--) -- (--) 0 0 0 0 0
19-07-2020 29.9 (14:10) 22 (00:00) 25.9 11.67 (17:50) 7.78 (15:00) 0 0 0 0 0
18-07-2020 29.2 (17:10) 20.2 (00:00) 24.7 9.44 (16:00) 6.67 (15:00) 0 0 0 0 0
17-07-2020 26.9 (14:00) 20.4 (00:00) 23.6 -- (--) -- (--) 0 0 0 0 0
16-07-2020 26.5 (14:10) 20.9 (00:00) 23.7 -- (--) -- (--) 0 0 0 0 0
15-07-2020 25.1 (13:50) 21.1 (00:00) 23.1 -- (--) -- (--) 0 0 0 0 0
14-07-2020 26.3 (16:20) 21.1 (00:00) 23.7 -- (--) -- (--) 0 0 0 0 0
13-07-2020 25.7 (16:30) 20.7 (00:00) 23.2 -- (--) -- (--) 0 0 0 0 0
12-07-2020 25.7 (15:30) 20.6 (04:20) 23.2 -- (--) -- (--) 0 0 0 0 0
11-07-2020 25.5 (14:50) 20.9 (02:40) 23.2 -- (--) -- (--) 0 0 0 0 0
10-07-2020 25.1 (13:20) 21 (00:00) 23.1 -- (--) -- (--) 0 0 0 0 0
09-07-2020 25.6 (13:50) 20.5 (07:10) 23.1 -- (--) -- (--) 0 0 0 0 0
08-07-2020 26.7 (13:10) 21.1 (05:10) 23.9 -- (--) -- (--) 0 0 0 0 0
07-07-2020 26.3 (13:50) 20.9 (01:20) 23.6 -- (--) -- (--) 0 0 0 0 0

Gráficas

Temp. máximas Temp. mínimas Temp. medias Precipitaciones Rachas de viento máximas Velocidades máximas media en intervalos de 10 minutos

Datos horarios

Fecha y hora oficial Temperatura (ºC) Velocidad del viento (km/h) Dirección del viento Racha (km/h) Dirección de racha Precipitación (mm) Presión (hPa) Tendencia (hPa) Humedad (%)
2020-08-05 23:00:00 22.7 15 Norte 30 Norte 0 1012.2 1.4 75
2020-08-05 22:00:00 22.8 17 Norte 29 Noroeste 0 1011.8 1.1 73
2020-08-05 21:00:00 22.9 19 Norte 32 Norte 0 1011.3 0.4 71
2020-08-05 20:00:00 23.2 20 Norte 29 Norte 0 1010.8 -0.1 69
2020-08-05 19:00:00 23.8 19 Noroeste 31 Norte 0 1010.7 -0.3 67
2020-08-05 18:00:00 24.4 19 Noroeste 33 Norte 0 1010.9 -0.6 65
2020-08-05 17:00:00 25.3 17 Noroeste 31 Noroeste 0 1010.9 -- 64
2020-08-05 16:00:00 25.4 18 Norte -- -- 0 1011 -- 60
2020-08-05 15:00:00 25.3 18 Noroeste 28 Norte 0 1011.5 -- 62
2020-08-05 14:00:00 24.5 19 Noroeste 29 Noroeste 0 1011.5 -- 65
2020-08-05 13:00:00 24.7 17 Norte -- -- 0 1011.6 -- 65
2020-08-05 12:00:00 23.8 -- -- -- -- 0 1011.8 -- 70
2020-08-05 11:00:00 23.5 20 Nordeste 34 Norte 0 1011.5 -- 70
2020-08-05 10:00:00 22.8 25 Nordeste 36 Nordeste 0 1011.1 -- 71
2020-08-05 09:00:00 22.3 22 Norte 32 Norte 0 1010.7 -- 72
2020-08-05 08:00:00 21.9 22 Nordeste 33 Norte 0 1010.4 -- 75
2020-08-05 07:00:00 21.7 23 Norte 36 Nordeste 0 1010.2 -- 75
2020-08-05 06:00:00 21.7 22 Norte 33 Nordeste 0 1010.1 -- 75
2020-08-05 05:00:00 21.8 25 Nordeste 32 Nordeste 0 1010.1 -- 75
2020-08-05 04:00:00 21.9 24 Norte 35 Norte 0 1010.3 -- 76
2020-08-05 03:00:00 22.1 21 Norte 37 Nordeste 0 1010.6 -- 78
2020-08-05 02:00:00 22.2 23 Norte 35 Nordeste 0 1011 -- 78
2020-08-05 01:00:00 22.2 26 Norte 38 Norte 0 1011.4 -- 79
2020-08-05 00:00:00 22.4 22 Norte 37 Nordeste 0 1011.5 -- 82
2020-08-04 23:00:00 22.2 26 Norte 35 Norte 0 1011.6 -- 80
2020-08-04 22:00:00 22.3 25 Norte 37 Norte 0 1011.3 -- 81
2020-08-04 21:00:00 22.8 26 Norte 38 Norte 0 1011 -- 80
2020-08-04 20:00:00 23.2 28 Norte -- -- 0 1010.6 -- 76
2020-08-04 19:00:00 24 -- -- -- -- 0 1010.3 -- 73
2020-08-04 18:00:00 25.1 25 Norte 39 Nordeste 0 1010.5 -- 70
2020-08-04 17:00:00 25.7 27 Nordeste 42 Norte 0 1010.7 -- 68
2020-08-04 16:00:00 25.9 26 Norte 44 Norte 0 1011.1 -- 67
2020-08-04 15:00:00 26.1 27 Norte 41 Norte 0 1011.5 -- 66
2020-08-04 14:00:00 26.7 22 Norte 45 Nordeste 0 1011.9 -- 64
2020-08-04 13:00:00 26.4 25 Norte 40 Norte 0 1012.2 -- 64
2020-08-04 12:00:00 26.5 27 Nordeste 41 Nordeste 0 1012.3 -- 64
2020-08-04 11:00:00 25.1 30 Norte 40 Norte 0 1012.3 -- 70
2020-08-04 10:00:00 23.9 28 Nordeste 41 Nordeste 0 1012.2 -- 75
2020-08-04 09:00:00 23.2 28 Norte 43 Norte 0 1011.9 -- 78
2020-08-04 08:00:00 22.5 31 Norte 47 Nordeste 0 1011.5 -- 85
2020-08-04 07:00:00 22.3 30 Nordeste 46 Norte 0 1011 -- 85
2020-08-04 06:00:00 22.2 30 Nordeste 46 Norte 0 1011 -- 87
2020-08-04 05:00:00 22.2 34 Norte 47 Norte 0 1010.9 -- 84
2020-08-04 04:00:00 21.9 32 Nordeste 48 Norte 0 1011.4 -- 87
2020-08-04 03:00:00 22.1 27 Nordeste 46 Norte 0 1012.1 -- 89
2020-08-04 02:00:00 21.8 28 Norte 46 Nordeste 0 1012.4 -- 88
2020-08-04 01:00:00 21.8 32 Norte 45 Norte 0 1013 -- 87
2020-08-04 00:00:00 21.9 24 Norte 36 Norte 0 1013.5 -- 89
2020-08-03 23:00:00 22 26 Norte 40 Norte 0 1013.9 -- 89
2020-08-03 22:00:00 22.2 25 Norte 40 Norte 0 1013.6 -- 88
2020-08-03 21:00:00 22.4 24 Norte 39 Norte 0 1013.3 -- 85
2020-08-03 20:00:00 23.2 25 Norte -- -- 0 1013.1 -- 80
2020-08-03 19:00:00 24.3 26 Norte 41 Norte 0 1013.1 -- 76
2020-08-03 18:00:00 25.4 27 Norte 49 Norte 0 1013.2 -- 70
2020-08-03 17:00:00 25.7 28 Nordeste 42 Nordeste 0 1013.4 -- 69
2020-08-03 16:00:00 25.9 32 Nordeste 49 Nordeste 0 1013.6 -- 69
2020-08-03 15:00:00 26.4 34 Norte 46 Norte 0 1014.1 -- 67
2020-08-03 14:00:00 26 34 Norte -- -- 0 1014.8 -- 67
2020-08-03 13:00:00 26 -- -- -- -- 0 1015.3 -- 67
2020-08-03 12:00:00 25 31 Norte 46 Nordeste 0 1015.5 -- 72
2020-08-03 11:00:00 24.6 29 Norte 42 Norte 0 1015.6 -- 72
2020-08-03 10:00:00 23.4 27 Norte 40 Nordeste 0 1015.4 -- 79
2020-08-03 09:00:00 22.7 24 Norte 36 Norte 0 1015.4 -- 84
2020-08-03 08:00:00 22 19 Norte 36 Nordeste 0 1015.1 -- 89
2020-08-03 07:00:00 21.7 18 Norte 30 Norte 0 1014.7 -- 94
2020-08-03 06:00:00 21.7 21 Nordeste 31 Norte 0 1014.7 -- 95
2020-08-03 05:00:00 21.8 17 Norte 37 Norte 0 1014.9 -- 94
2020-08-03 04:00:00 21.9 21 Nordeste 37 Nordeste 0 1014.9 -- 94
2020-08-03 03:00:00 22 23 Norte 37 Norte 0 1015.3 -- 92
2020-08-03 02:00:00 22.4 21 Norte 37 Norte 0 1015.6 -- 91
2020-08-03 01:00:00 22.6 22 Norte 41 Norte 0 1016 -- 84
2020-08-03 00:00:00 22.7 30 Norte 43 Nordeste 0 1016 -- 85
2020-08-02 23:00:00 22.8 27 Norte 39 Norte 0 1015.8 -- 86
2020-08-02 22:00:00 22.9 21 Nordeste 33 Nordeste 0 1015.4 -- 86
2020-08-02 21:00:00 23.2 22 Nordeste 35 Nordeste 0 1014.8 -- 82
2020-08-02 20:00:00 23.8 24 Nordeste 39 Norte 0 1014.5 -- 80
2020-08-02 19:00:00 25.1 27 Nordeste 41 Nordeste 0 1014.4 -- 75
2020-08-02 18:00:00 25 30 Nordeste 45 Nordeste 0 1014.6 -- 76
2020-08-02 17:00:00 26.1 27 Norte 43 Norte 0 1014.6 -- 72
2020-08-02 16:00:00 26.6 29 Norte 45 Nordeste 0 1015 -- 71
2020-08-02 15:00:00 27 31 Norte 49 Nordeste 0 1015.4 -- 71
2020-08-02 14:00:00 26.9 35 Norte 51 Norte 0 1015.6 -- 72
2020-08-02 13:00:00 26.4 33 Norte -- -- 0 1015.9 -- 74
2020-08-02 12:00:00 26.5 29 Norte 41 Norte 0 1016.1 -- 74
2020-08-02 11:00:00 25.2 26 Norte 38 Norte 0 1016 -- 81
2020-08-02 10:00:00 23.7 21 Norte 32 Norte 0 1015.8 -- 88
2020-08-02 09:00:00 23.4 18 Norte 29 Norte 0 1015.6 -- 90
2020-08-02 08:00:00 22.9 16 Norte 24 Norte 0 1015.3 -- 94
2020-08-02 07:00:00 22.6 13 Norte 26 Norte 0 1014.9 -- 96
2020-08-02 06:00:00 22.5 10 Norte 19 Norte 0 1014.7 -- 96
2020-08-02 05:00:00 22.5 13 Norte 24 Norte 0 1014.4 -- 97
2020-08-02 04:00:00 22.5 16 Norte 25 Norte 0 1014.6 -- 95
2020-08-02 03:00:00 22.6 16 Norte 25 Norte 0 1014.8 -- 94
2020-08-02 02:00:00 22.6 18 Norte 24 Norte 0 1015.1 -- 94
2020-08-02 01:00:00 22.7 16 Nordeste 27 Norte 0 1015.7 -- 90
2020-08-02 00:00:00 23 22 Norte 30 Norte 0 1016.1 -- 89
2020-08-01 23:00:00 23.1 24 Nordeste 35 Norte 0 1016 -- 86
2020-08-01 22:00:00 23.2 23 Norte 32 Norte 0 1015.5 -- 87
2020-08-01 21:00:00 23.4 18 Norte 27 Norte 0 1015.2 -- 87
2020-08-01 20:00:00 23.7 17 Norte 27 Norte 0 1015 -- 82
2020-08-01 19:00:00 24.4 15 Norte 23 Norte 0 1014.7 -- 80
2020-08-01 18:00:00 26.1 13 Norte 23 Norte 0 1014.8 -- 71
2020-08-01 17:00:00 26.5 14 Norte 23 Norte 0 1015.1 -- 68
2020-08-01 16:00:00 27 -- -- -- -- 0 1015.6 -- 66
2020-08-01 15:00:00 26.8 -- -- -- -- 0 1015.7 -- 65
2020-08-01 14:00:00 26.2 21 Nordeste 32 Nordeste 0 1016.1 -- 67
2020-08-01 13:00:00 25.4 20 Nordeste -- -- 0 1016.3 -- 70
2020-08-01 12:00:00 25.1 -- -- -- -- 0 1016.4 -- 70
2020-08-01 11:00:00 24.6 20 Norte 27 Norte 0 1016.3 -- 73
2020-08-01 10:00:00 23.8 19 Norte 26 Nordeste 0 1016 -- 77
2020-08-01 09:00:00 22.8 19 Nordeste 23 Nordeste 0 1016 -- 81
2020-08-01 08:00:00 22 14 Norte 19 Norte 0 1015.6 -- 88
2020-08-01 07:00:00 21.6 12 Norte 17 Norte 0 1015.1 -- 89
2020-08-01 06:00:00 21.9 11 Norte 22 Norte 0 1014.9 -- 88
2020-08-01 05:00:00 21.8 14 Norte 22 Norte 0 1014.6 -- 87
2020-08-01 04:00:00 21.8 16 Norte 24 Nordeste 0 1014.7 -- 87
2020-08-01 03:00:00 21.8 13 Norte 20 Norte 0 1014.9 -- 91
2020-08-01 02:00:00 21.8 13 Norte 20 Nordeste 0 1015.3 -- 88
2020-08-01 01:00:00 22.4 16 Nordeste 21 Nordeste 0 1016.1 -- 85
2020-08-01 00:00:00 22.5 13 Nordeste 22 Norte 0 1016.6 -- 82
2020-07-31 23:00:00 22.4 17 Nordeste 22 Nordeste 0 1016.3 -- 86
2020-07-31 22:00:00 22.4 19 Nordeste 27 Norte 0 1015.7 -- 85
2020-07-31 21:00:00 22.4 21 Nordeste 30 Norte 0 1014.9 -- 83
2020-07-31 20:00:00 23.1 21 Norte 29 Norte 0 1014.5 -- 78
2020-07-31 19:00:00 23.9 21 Norte 30 Nordeste 0 1014 -- 74
2020-07-31 18:00:00 25.1 19 Norte 33 Nordeste 0 1014.1 -- 67
2020-07-31 17:00:00 25.4 17 Norte 31 Nordeste 0 1014.2 -- 66
2020-07-31 16:00:00 25.4 21 Norte 31 Norte 0 1014 -- 65
2020-07-31 15:00:00 25.4 18 Nordeste 34 Nordeste 0 1014.3 -- 65
2020-07-31 14:00:00 25.5 18 Nordeste 29 Nordeste 0 1014.3 -- 64
2020-07-31 13:00:00 25.3 17 Nordeste 28 Nordeste 0 1014.6 -- 64
2020-07-31 12:00:00 24.7 15 Nordeste 24 Nordeste 0 1014.7 -- 67
2020-07-31 11:00:00 24.1 15 Nordeste 24 Nordeste 0 1014.5 -- 70
2020-07-31 10:00:00 23 14 Nordeste 18 Nordeste 0 1014.4 -- 76
2020-07-31 09:00:00 22.6 12 Nordeste 19 Norte 0 1014 -- 77
2020-07-31 08:00:00 21.9 13 Norte 19 Norte 0 1013.4 -- 79
2020-07-31 07:00:00 21.7 11 Nordeste 17 Norte 0 1013.2 -- 80
2020-07-31 06:00:00 21.6 9 Nordeste 21 Nordeste 0 1012.8 -- 81
2020-07-31 05:00:00 21.5 14 Norte 21 Norte 0 1011.8 -- 80
2020-07-31 04:00:00 21.3 13 Norte 20 Nordeste 0 1012 -- 81
2020-07-31 03:00:00 21.6 8 Norte 30 Norte 0 1012.1 -- 78
2020-07-31 02:00:00 21.9 21 Norte 31 Nordeste 0 1012.5 -- 76
2020-07-31 01:00:00 22.1 20 Nordeste 31 Nordeste 0 1013.4 -- 76
2020-07-31 00:00:00 22.2 19 Nordeste 30 Nordeste 0 1013.8 -- 77
2020-07-30 23:00:00 22.3 21 Nordeste 30 Nordeste 0 1013.8 -- 76
2020-07-30 22:00:00 22.3 20 Nordeste 30 Nordeste 0 1013 -- 75
2020-07-30 21:00:00 22.5 21 Norte 30 Nordeste 0 1012.1 -- 76
2020-07-30 20:00:00 22.7 22 Norte 33 Nordeste 0 1011.6 -- 74
2020-07-30 19:00:00 23.6 22 Norte 35 Norte 0 1011.2 -- 70
2020-07-30 18:00:00 24.2 24 Norte 35 Nordeste 0 1011.3 -- 67
2020-07-30 17:00:00 24.9 26 Norte 37 Nordeste 0 1011.3 -- 63
2020-07-30 16:00:00 24.5 -- -- -- -- 0 1011.1 -- 67
2020-07-30 15:00:00 25.7 26 Norte 39 Nordeste 0 1011.4 -- 58
2020-07-30 14:00:00 25.6 26 Norte 39 Nordeste 0 1011.8 -- 62
2020-07-30 13:00:00 25.7 22 Nordeste 40 Nordeste 0 1012.7 -- 60
2020-07-30 12:00:00 25.1 21 Nordeste 35 Norte 0 1012.7 -- 62
2020-07-30 11:00:00 23.7 23 Norte 33 Norte 0 1011.7 -- 68
2020-07-30 10:00:00 22.9 20 Norte 28 Nordeste 0 1012 -- 69
2020-07-30 09:00:00 22.4 19 Nordeste 33 Nordeste 0 1011.6 -- 72
2020-07-30 08:00:00 21.7 20 Norte 32 Nordeste 0 1010.8 -- 76
2020-07-30 07:00:00 21.4 23 Norte 33 Norte 0 1010.2 -- 75
2020-07-30 06:00:00 21.5 24 Norte 33 Nordeste 0 1009.9 -- 74
2020-07-30 05:00:00 21.5 22 Norte 35 Norte 0 1010 -- 74
2020-07-30 04:00:00 21.5 20 Norte 35 Norte 0 1010 -- 74
2020-07-30 03:00:00 21.8 24 Norte 37 Norte 0 1010.2 -- 73
2020-07-30 02:00:00 22 21 Norte 35 Norte 0 1010.9 -- 73
2020-07-30 01:00:00 21.9 25 Norte 41 Norte 0 1011.3 -- 73
2020-07-30 00:00:00 22.1 27 Norte 39 Norte 0 1011.8 -- 74
2020-07-29 23:00:00 22.1 26 Nordeste 40 Norte 0 1011.5 -- 73
2020-07-29 22:00:00 22.4 26 Norte 37 Norte 0 1011.2 -- 72
2020-07-29 21:00:00 22.7 25 Norte 42 Norte 0 1010.9 -- 72
2020-07-29 20:00:00 23 27 Norte 41 Nordeste 0 1010.6 -- 72
2020-07-29 19:00:00 24.1 27 Norte 39 Norte 0 1010.6 -- 70
2020-07-29 18:00:00 24.4 26 Nordeste -- -- 0 1010.6 -- 70
2020-07-29 17:00:00 25.2 -- -- -- -- 0 1010.9 -- 65
2020-07-29 16:00:00 25.6 -- -- -- -- 0 1011.4 -- 64
2020-07-29 15:00:00 26.3 -- -- -- -- 0 1011.7 -- 60
2020-07-29 14:00:00 26.6 -- -- -- -- 0 1012.5 -- 60
2020-07-29 13:00:00 26.2 -- -- -- -- 0 1012.8 -- 59
2020-07-29 12:00:00 25.9 -- -- -- -- 0 1012.9 -- 61
2020-07-29 11:00:00 24.8 32 Norte 45 Nordeste 0 1012.9 -- 66
2020-07-29 10:00:00 23.7 34 Nordeste 46 Nordeste 0 1012.9 -- 68
2020-07-29 09:00:00 23 29 Norte 42 Nordeste 0 1012.5 -- 77
2020-07-29 08:00:00 22.5 32 Nordeste 42 Norte 0 1012.3 -- 74
2020-07-29 07:00:00 22.2 27 Norte 44 Nordeste 0 1011.9 -- 76
2020-07-29 06:00:00 22.1 32 Nordeste 46 Nordeste 0 1011.8 -- 74
2020-07-29 05:00:00 22.2 26 Nordeste 44 Nordeste 0 1011.5 -- 77
2020-07-29 04:00:00 22.1 28 Nordeste 44 Norte 0 1011.9 -- 77
2020-07-29 03:00:00 22 31 Nordeste 44 Nordeste 0 1012.2 -- 76
2020-07-29 02:00:00 22 28 Nordeste 46 Nordeste 0 1012.7 -- 77
2020-07-29 01:00:00 22.1 31 Nordeste 45 Norte 0 1013.3 -- 77
2020-07-29 00:00:00 22.4 30 Nordeste 45 Norte 0 1013.7 -- 78
2020-07-28 23:00:00 22.3 28 Nordeste 45 Nordeste 0 1014 -- 77
2020-07-28 22:00:00 22.5 34 Norte 46 Norte 0 1013.7 -- 78
2020-07-28 21:00:00 22.5 33 Norte 44 Norte 0 1013.4 -- 77
2020-07-28 20:00:00 23 28 Nordeste 43 Nordeste 0 1013.4 -- 76
2020-07-28 19:00:00 23.6 32 Nordeste 44 Nordeste 0 1013.2 -- 74
2020-07-28 18:00:00 24.6 31 Nordeste 42 Nordeste 0 1013.7 -- 70
2020-07-28 17:00:00 25.1 33 Norte 48 Nordeste 0 1013.8 -- 67
2020-07-28 16:00:00 25.5 37 Nordeste 49 Nordeste 0 1014.1 -- 66
2020-07-28 15:00:00 25 33 Nordeste 44 Norte 0 1014.3 -- 69
2020-07-28 14:00:00 25.6 35 Nordeste 48 Nordeste 0 1014.6 -- 66
2020-07-28 13:00:00 25.3 35 Nordeste 48 Norte 0 1015 -- 66
2020-07-28 12:00:00 24.9 30 Nordeste 47 Nordeste 0 1014.8 -- 72
2020-07-28 11:00:00 23.5 33 Nordeste 45 Nordeste 0 1014.7 -- 76
2020-07-28 10:00:00 23.3 -- -- -- -- 0 1014.4 -- 77
2020-07-28 09:00:00 22.6 -- -- -- -- 0 1014.1 -- 80
2020-07-28 08:00:00 22 -- -- -- -- 0 1013.9 -- 82
2020-07-28 07:00:00 21.9 -- -- -- -- 0 1013.5 -- 85
2020-07-28 06:00:00 21.8 -- -- -- -- 0 1013.3 -- 85
2020-07-28 05:00:00 21.7 -- -- -- -- 0 1013.5 -- 86
2020-07-28 04:00:00 21.8 -- -- -- -- 0 1013.4 -- 85
2020-07-28 03:00:00 21.9 -- -- -- -- 0 1013.8 -- 85
2020-07-28 02:00:00 22 -- -- -- -- 0 1014.2 -- 84
2020-07-28 01:00:00 22.1 30 Nordeste 41 Nordeste 0 1014.9 -- 84
2020-07-28 00:00:00 22.3 30 Nordeste 41 Nordeste 0 1015.3 -- 83
2020-07-27 23:00:00 22.4 31 Nordeste 40 Nordeste 0 1015 -- 82
2020-07-27 22:00:00 22.6 30 Nordeste 40 Nordeste 0 1014.7 -- 82
2020-07-27 21:00:00 22.8 31 Nordeste 39 Nordeste 0 1014.4 -- 82
2020-07-27 20:00:00 23.1 30 Nordeste 38 Nordeste 0 1013.6 -- 79
2020-07-27 19:00:00 23.7 27 Norte 40 Nordeste 0 1013.4 -- 76
2020-07-27 18:00:00 24.6 -- -- -- -- 0 1013.2 -- 73
2020-07-27 17:00:00 25.4 -- -- -- -- 0 1013.3 -- 69
2020-07-27 16:00:00 25.9 -- -- -- -- 0 1013.4 -- 66
2020-07-27 15:00:00 25.9 -- -- -- -- 0 1013.7 -- 67
2020-07-27 14:00:00 25.2 -- -- -- -- 0 1014 -- 68
2020-07-27 13:00:00 25.1 -- -- -- -- 0 1013.9 -- 67
2020-07-27 12:00:00 24.3 27 Nordeste 38 Nordeste 0 1014 -- 71
2020-07-27 11:00:00 23.9 -- -- -- -- 0 1014.2 -- 72
2020-07-27 08:00:00 21.7 27 Nordeste 40 Nordeste 0 1013 0.8 81
2020-07-27 07:00:00 21.4 27 Nordeste 39 Nordeste 0 1012.2 -0.1 83
2020-07-27 06:00:00 21.2 27 Norte 39 Nordeste 0 1012 -0.4 82
2020-07-27 05:00:00 21.3 26 Norte 38 Nordeste 0 1012.2 -0.9 81
2020-07-27 04:00:00 21.5 26 Norte 39 Norte 0 1012.3 -1.1 81
2020-07-27 03:00:00 21.6 28 Norte 39 Nordeste 0 1012.4 -1.2 80
2020-07-27 02:00:00 22 29 Nordeste 40 Nordeste 0 1013.1 -0.3 78
2020-07-27 01:00:00 22 28 Nordeste 37 Nordeste 0 1013.4 0.2 79
2020-07-27 00:00:00 22.1 28 Norte 39 Norte 0 1013.6 1.2 79
2020-07-26 23:00:00 22.3 27 Nordeste 37 Nordeste 0 1013.4 1.3 78
2020-07-26 22:00:00 22.4 27 Norte 37 Nordeste 0 1013.2 1.4 77
2020-07-26 21:00:00 22.7 24 Nordeste 34 Norte 0 1012.4 0.4 76
2020-07-26 20:00:00 23.2 22 Norte 33 Nordeste 0 1012.1 0 75
2020-07-26 19:00:00 23.8 24 Nordeste -- -- 0 1011.8 -0.6 71
2020-07-26 18:00:00 24.6 -- -- -- -- 0 1012 -0.9 68
2020-07-26 17:00:00 25.1 -- -- -- -- 0 1012.1 -0.8 67
2020-07-26 16:00:00 25.8 -- -- -- -- 0 1012.4 -0.5 62
2020-07-26 15:00:00 25.5 -- -- -- -- 0 1012.9 -0.3 67
2020-07-26 14:00:00 25.9 -- -- -- -- 0 1012.9 -0.2 62
2020-07-26 13:00:00 24.8 -- -- -- -- 0 1012.9 -0.1 66
2020-07-26 12:00:00 24.4 -- -- -- -- 0 1013.2 0.3 67
2020-07-26 11:00:00 23.4 27 Norte 39 Norte 0 1013.1 0.5 72
2020-07-26 10:00:00 22.9 28 Norte 42 Norte 0 1013 0.7 72
2020-07-26 09:00:00 22.1 27 Norte 39 Norte 0 1012.9 -- 77
2020-07-26 08:00:00 21.8 26 Norte 40 Nordeste 0 1012.6 -- 77
2020-07-26 07:00:00 21.9 27 Norte 39 Norte 0 1012.3 -- 79
2020-07-26 06:00:00 21.9 26 Nordeste 40 Norte 0 1012 -- 77
2020-07-26 05:00:00 22 26 Norte 41 Nordeste 0 1012 -- 77
2020-07-26 04:00:00 22.1 27 Norte 36 Norte 0 1012 -- 79
2020-07-26 03:00:00 22 24 Nordeste 39 Nordeste 0 1013 -- 78
2020-07-26 02:00:00 22.2 24 Norte 33 Norte 0 1013.1 -- 80
2020-07-26 01:00:00 22.4 21 Nordeste 38 Norte 0 1013.7 -- 79
2020-07-26 00:00:00 22.4 24 Norte 39 Norte 0 1014.1 -- 79
2020-07-25 23:00:00 22.4 23 Norte 38 Norte 0 1014 -- 80
2020-07-25 22:00:00 22.5 24 Norte 36 Nordeste 0 1013.5 -- 81
2020-07-25 21:00:00 22.7 23 Nordeste 37 Norte 0 1013 -- 79
2020-07-25 20:00:00 23 28 Nordeste 40 Norte 0 1012.8 -- 77
2020-07-25 19:00:00 23.8 26 Norte 42 Norte 0 1012.6 -- 74
2020-07-25 18:00:00 25.1 23 Norte 38 Norte 0 1012.6 -- 69
2020-07-25 17:00:00 24.7 23 Norte 40 Norte 0 1013.1 -- 70
2020-07-25 16:00:00 25.2 23 Norte 39 Nordeste 0 1013.1 -- 67
2020-07-25 15:00:00 25.5 23 Nordeste 38 Nordeste 0 1013.3 -- 67
2020-07-25 14:00:00 25.6 24 Nordeste 37 Nordeste 0 1013.7 -- 66
2020-07-25 13:00:00 25.5 23 Nordeste 37 Norte 0 1014 -- 68
2020-07-25 12:00:00 24.8 23 Norte 39 Norte 0 1013.9 -- 69
2020-07-25 11:00:00 24.6 23 Norte 37 Nordeste 0 1013.5 -- 72
2020-07-25 10:00:00 23.3 21 Norte 33 Norte 0 1013.5 -- 76
2020-07-25 09:00:00 22.6 22 Norte 32 Norte 0 1013.2 -- 80
2020-07-25 08:00:00 21.4 25 Norte 36 Norte 0 1012.6 -- 86
2020-07-25 07:00:00 21.4 21 Norte 34 Norte 0 1012.2 -- 90
2020-07-25 06:00:00 21.4 22 Norte 39 Norte 0 1012.1 -- 92
2020-07-25 05:00:00 21.3 19 Norte 31 Norte 0 1011.9 -- 94
2020-07-25 04:00:00 21.4 14 Norte 30 Norte 0 1012 -- 94
2020-07-25 03:00:00 21.2 14 Norte 27 Norte 0 1012.3 -- 99
2020-07-25 02:00:00 21.4 15 Norte 31 Norte 0 1012.7 -- 95
2020-07-25 01:00:00 21.8 13 Nordeste 22 Norte 0 1013.3 -- 94
2020-07-25 00:00:00 21.8 10 Norte 17 Norte 0 1013.9 -- 93
2020-07-24 23:00:00 21.9 6 Norte 24 Norte 0 1013.9 -- 91
2020-07-24 22:00:00 22 15 Noroeste 25 Norte 0 1013.6 -- 89
2020-07-24 21:00:00 22.2 15 Noroeste 26 Norte 0 1013.3 -- 87
2020-07-24 20:00:00 22.9 17 Norte 27 Norte 0 1013.1 -- 83
2020-07-24 19:00:00 24 19 Norte 28 Norte 0 1012.9 -- 76
2020-07-24 18:00:00 24.3 18 Norte 30 Norte 0 1013.2 -- 74
2020-07-24 17:00:00 25.5 20 Norte 29 Norte 0 1013.2 -- 70
2020-07-24 16:00:00 25.9 19 Norte 33 Norte 0 1013.1 -- 68
2020-07-24 15:00:00 25.6 23 Norte 36 Nordeste 0 1013.3 -- 68
2020-07-24 14:00:00 25.7 23 Norte 39 Nordeste 0 1013.7 -- 68
2020-07-24 13:00:00 24.7 25 Norte 39 Norte 0 1013.7 -- 72
2020-07-24 12:00:00 24.7 29 Nordeste 39 Nordeste 0 1013.7 -- 73
2020-07-24 11:00:00 23.7 28 Nordeste 38 Nordeste 0 1013.7 -- 77
2020-07-24 10:00:00 22.8 24 Norte 37 Nordeste 0 1013.4 -- 82
2020-07-24 09:00:00 22.2 24 Nordeste 38 Norte 0 1013.1 -- 84
2020-07-24 08:00:00 21.8 26 Norte 37 Norte 0 1012.8 -- 88
2020-07-24 07:00:00 21.5 28 Norte 40 Nordeste 0 1012.6 -- 88
2020-07-24 06:00:00 21.5 25 Norte 37 Norte 0 1012.5 -- 89
2020-07-24 05:00:00 21.5 23 Norte 35 Norte 0 1012.5 -- 88
2020-07-24 04:00:00 21.4 24 Norte 35 Norte 0 1012.7 -- 86
2020-07-24 03:00:00 21.4 24 Nordeste 36 Norte 0 1013.1 -- 85
2020-07-24 02:00:00 21.5 23 Norte 32 Norte 0 1013.9 -- 87
2020-07-24 01:00:00 21.6 22 Norte 36 Norte 0 1014.5 -- 86
2020-07-24 00:00:00 21.7 23 Norte 36 Norte 0 1015 -- 85
2020-07-23 23:00:00 21.9 21 Nordeste 31 Norte 0 1014.8 -- 85
2020-07-23 22:00:00 22 22 Nordeste 33 Nordeste 0 1014.7 -- 84
2020-07-23 21:00:00 22.2 23 Norte 34 Norte 0 1014.4 -- 83
2020-07-23 20:00:00 22.5 25 Nordeste 38 Nordeste 0 1014.1 -- 81
2020-07-23 19:00:00 23.2 27 Norte 39 Nordeste 0 1013.5 -- 77
2020-07-23 18:00:00 23.9 29 Nordeste 41 Nordeste 0 1013.8 -- 74
2020-07-23 17:00:00 24.8 27 Norte 42 Norte 0 1014 -- 71
2020-07-23 16:00:00 25.3 29 Nordeste 41 Norte 0 1014.5 -- 68
2020-07-23 15:00:00 25.1 29 Nordeste 43 Norte 0 1014.8 -- 70
2020-07-23 14:00:00 24.8 31 Norte 44 Nordeste 0 1015.1 -- 70
2020-07-23 13:00:00 24.2 28 Nordeste 45 Nordeste 0 1015.6 -- 73
2020-07-23 12:00:00 23.8 31 Nordeste 42 Nordeste 0 1015.6 -- 74
2020-07-23 11:00:00 23.2 29 Nordeste 39 Nordeste 0 1015.6 -- 76
2020-07-23 10:00:00 22.7 28 Nordeste 40 Nordeste 0 1015.2 -- 78
2020-07-23 09:00:00 22 27 Nordeste 37 Norte 0 1015 -- 83
2020-07-23 08:00:00 21.5 26 Norte 36 Norte 0 1014.8 -- 85
2020-07-23 07:00:00 21.5 22 Norte 33 Norte 0 1014.5 -- 87
2020-07-23 06:00:00 21.4 25 Nordeste 34 Norte 0 1014.1 -- 86
2020-07-23 05:00:00 21.5 23 Norte 34 Nordeste 0 1014.2 -- 86
2020-07-23 04:00:00 21.7 22 Nordeste 33 Nordeste 0 1014.4 -- 87
2020-07-23 03:00:00 21.7 20 Norte 33 Nordeste 0 1015.1 -- 87
2020-07-23 02:00:00 21.7 21 Norte 33 Norte 0 1015.4 -- 87
2020-07-23 01:00:00 21.6 18 Norte 29 Nordeste 0 1015.8 -- 88
2020-07-23 00:00:00 21.8 21 Norte 31 Nordeste 0 1015.9 -- 87
2020-07-22 23:00:00 22 20 Nordeste 32 Nordeste 0 1015.8 -- 86
2020-07-22 22:00:00 22 24 Norte 35 Nordeste 0 1015.4 -- 83
2020-07-22 21:00:00 22.4 27 Nordeste 38 Nordeste 0 1015 -- 81
2020-07-22 20:00:00 22.9 27 Norte 38 Nordeste 0 1014.7 -- 77
2020-07-22 19:00:00 23.5 25 Norte 40 Nordeste 0 1014.4 -- 75
2020-07-22 18:00:00 24.1 25 Nordeste 36 Norte 0 1014.4 -- 74
2020-07-22 17:00:00 24.4 26 Norte 39 Norte 0 1014.8 -- 71
2020-07-22 16:00:00 25.2 27 Nordeste 42 Nordeste 0 1014.8 -- 68
2020-07-22 15:00:00 25.9 30 Norte 39 Nordeste 0 1014.8 -- 64
2020-07-22 14:00:00 25.5 30 Nordeste 42 Nordeste 0 1015.3 -- 66
2020-07-22 13:00:00 26.4 28 Nordeste -- -- 0 1015.4 -- 63
2020-07-22 12:00:00 25.4 28 Nordeste 40 Nordeste 0 1015.6 -- 67
2020-07-22 11:00:00 25.3 31 Nordeste 40 Nordeste 0 1015.2 -- 67
2020-07-22 10:00:00 23.6 28 Nordeste 41 Nordeste 0 1015 -- 73
2020-07-22 09:00:00 22.6 28 Nordeste 40 Nordeste 0 1014.9 -- 75
2020-07-22 08:00:00 22.2 26 Nordeste 37 Nordeste 0 1014.4 -- 76
2020-07-22 07:00:00 22.1 23 Nordeste 37 Nordeste 0 1014.1 -- 78
2020-07-22 06:00:00 22.2 22 Nordeste 37 Nordeste 0 1013.7 -- 77
2020-07-22 05:00:00 21.9 25 Norte 33 Norte 0 1013.8 -- 76
2020-07-22 04:00:00 22.1 25 Nordeste 38 Norte 0 1013.7 -- 75
2020-07-22 03:00:00 22.3 26 Norte 37 Norte 0 1014.2 -- 76
2020-07-22 02:00:00 22.3 21 Nordeste 32 Nordeste 0 1014.8 -- 77
2020-07-22 01:00:00 22 27 Norte 35 Nordeste 0 1015.4 -- 76
2020-07-22 00:00:00 22.3 25 Nordeste 33 Nordeste 0 1015.5 -- 83
2020-07-21 23:00:00 21.9 23 Norte 36 Norte 0 1015.5 -- 83
2020-07-21 22:00:00 22.4 18 Nordeste 31 Norte 0 1015.2 -- 80
2020-07-21 21:00:00 22.3 21 Norte 30 Nordeste 0 1014.6 -- 75
2020-07-21 20:00:00 23.6 20 Nordeste 31 Norte 0 1014 -- 67
2020-07-21 19:00:00 24.2 22 Norte 35 Norte 0 1013.9 -- 65
2020-07-21 18:00:00 25.3 21 Nordeste 35 Nordeste 0 1013.8 -- 61
2020-07-21 17:00:00 25.4 25 Nordeste 37 Nordeste 0 1013.8 -- 60
2020-07-21 16:00:00 25.8 25 Nordeste 43 Nordeste 0 1013.9 -- 58
2020-07-21 15:00:00 26.1 27 Nordeste 37 Nordeste 0 1014 -- 57
2020-07-21 14:00:00 26.1 24 Nordeste 37 Nordeste 0 1014.7 -- 56
2020-07-21 13:00:00 25.1 24 Norte 35 Nordeste 0 1015 -- 59
2020-07-21 12:00:00 25.2 22 Nordeste 35 Nordeste 0 1015 -- 58
2020-07-21 11:00:00 24.1 26 Nordeste 37 Nordeste 0 1014.8 -- 64
2020-07-21 10:00:00 24.3 25 Nordeste -- -- 0 1014.1 -- 62
2020-07-21 09:00:00 22.2 20 Norte -- -- 0 1013.8 -- 67
2020-07-21 08:00:00 21.9 -- -- -- -- 0 1013.4 -- 69
2020-07-21 07:00:00 21.7 -- -- -- -- 0 1013.2 -- 72
2020-07-21 06:00:00 21.7 -- -- -- -- 0 1013.4 -- 70
2020-07-21 05:00:00 21.8 -- -- -- -- 0 1013.3 -- 72
2020-07-21 04:00:00 21.8 -- -- -- -- 0 1012.8 -- 75
2020-07-21 03:00:00 21.5 -- -- -- -- 0 1013 -- 76
2020-07-21 02:00:00 22 -- -- -- -- 0 1013.1 -- 78
2020-07-21 01:00:00 22 -- -- -- -- 0 1013.4 -- 79
2020-07-21 00:00:00 22.2 -- -- -- -- 0 1013.9 -- 79
2020-07-20 23:00:00 22 -- -- -- -- 0 1013.9 -- 76
2020-07-20 22:00:00 22 -- -- -- -- 0 1013.4 -- 79
2020-07-20 21:00:00 22.4 24 Norte 37 Norte 0 1012.6 -- 76
2020-07-20 20:00:00 23.2 22 Norte 38 Norte 0 1012.7 -- 70
2020-07-20 19:00:00 24.4 23 Norte 42 Norte 0 1012.6 -- 65
2020-07-20 18:00:00 24.9 24 Norte 40 Norte 0 1012.4 -- 64
2020-07-20 17:00:00 25.4 26 Norte 46 Norte 0 1012.4 -- 63
2020-07-20 16:00:00 25.9 28 Norte 40 Norte 0 1012.6 -- 62
2020-07-20 15:00:00 26.3 24 Norte 35 Norte 0 1013 -- 61
2020-07-20 14:00:00 25.7 24 Norte 41 Nordeste 0 1013.5 -- 64
2020-07-20 13:00:00 25.3 26 Nordeste 38 Nordeste 0 1013.3 -- 66
2020-07-20 12:00:00 25.1 22 Nordeste -- -- 0 1013.3 -- 68
2020-07-20 11:00:00 23.9 23 Norte 37 Norte 0 1013.2 -- 74
2020-07-20 10:00:00 23 21 Norte 33 Norte 0 1012.7 -- 79
2020-07-20 09:00:00 22.6 19 Norte 30 Norte 0 1012 -- 83
2020-07-20 08:00:00 22 18 Norte -- -- 0 1011.7 -- 89
2020-07-20 07:00:00 21.8 -- -- -- -- 0 1011.6 -- 91
2020-07-20 06:00:00 21.9 -- -- -- -- 0 1011.3 -- 95
2020-07-20 05:00:00 22 13 Norte 24 Nordeste 0 1011.3 -- 94
2020-07-20 04:00:00 22 16 Norte 28 Norte 0 1011.3 -- 98
2020-07-20 03:00:00 22.2 13 Norte 23 Norte 0 1011.8 -- 99
2020-07-20 02:00:00 22.5 15 Nordeste 28 Norte 0 1012.2 -- 92
2020-07-20 01:00:00 22.7 9 Nordeste 18 Norte 0 1012.4 -- 86
2020-07-20 00:00:00 23.1 12 Norte 23 Nordeste 0 1012.4 -- 82
2020-07-19 23:00:00 23.5 8 Norte 16 Noroeste 0 1012.6 -- 76
2020-07-19 22:00:00 23.6 5 Este 19 Nordeste 0 1012.1 -- 71
2020-07-19 21:00:00 23.9 6 Nordeste 16 Norte 0 1011.7 -- 79
2020-07-19 20:00:00 25.1 11 Norte 36 Norte 0 1011 -- 70
2020-07-19 19:00:00 25.9 21 Norte 41 Norte 0 1010.7 -- 66
2020-07-19 18:00:00 27.1 27 Norte 42 Norte 0 1010.8 -- 61
2020-07-19 17:00:00 28.3 23 Norte 37 Norte 0 1011.7 -- 54
2020-07-19 16:00:00 28.6 26 Norte 39 Norte 0 1011.7 -- 53
2020-07-19 15:00:00 28.6 28 Norte 40 Norte 0 1011.6 -- 52
2020-07-19 14:00:00 29.3 23 Norte 33 Norte 0 1011.9 -- 48
2020-07-19 13:00:00 29.6 19 Norte 35 Norte 0 1011.9 -- 48
2020-07-19 12:00:00 28.4 21 Norte 35 Norte 0 1012.1 -- 52
2020-07-19 11:00:00 28.8 19 Nordeste 34 Norte 0 1011.6 0.9 49
2020-07-19 10:00:00 27.2 18 Norte 31 Norte 0 1011.7 1.4 54
2020-07-19 09:00:00 25 17 Norte 28 Norte 0 1011.3 1.2 69
2020-07-19 08:00:00 23.3 15 Nordeste 28 Nordeste 0 1010.7 0.6 77
2020-07-19 07:00:00 22.1 18 Nordeste 30 Nordeste 0 1010.3 -- 85
2020-07-19 06:00:00 22.4 25 Nordeste 36 Nordeste 0 1010.1 -- 83
2020-07-19 05:00:00 22.7 -- -- -- -- 0 1010.1 -- 78
2020-07-19 04:00:00 22.5 23 Nordeste 32 Nordeste 0 1010.3 -- 83
2020-07-19 03:00:00 22.4 15 Nordeste 22 Nordeste 0 1011 -- 88
2020-07-19 02:00:00 22.9 17 Nordeste 25 Nordeste 0 1011.8 -- 83
2020-07-19 01:00:00 23.3 10 Nordeste 20 Norte 0 1012.2 -- 75
2020-07-19 00:00:00 23.2 6 Nordeste 17 Norte 0 1012.8 -- 79
2020-07-18 23:00:00 23.3 8 Nordeste 17 Nordeste 0 1012.4 -- 83
2020-07-18 22:00:00 23.2 8 Norte 15 Noroeste 0 1012 -- 88
2020-07-18 21:00:00 23.9 5 Nordeste 20 Norte 0 1011.7 -- 80
2020-07-18 20:00:00 24.9 12 Norte 20 Norte 0 1011.3 -- 76
2020-07-18 19:00:00 26.7 12 Noroeste 32 Nordeste 0 1011.1 -- 69
2020-07-18 18:00:00 27.7 21 Nordeste 30 Nordeste 0 1010.6 -- 62
2020-07-18 17:00:00 28.1 23 Norte 33 Norte 0 1011.3 -- 59
2020-07-18 16:00:00 28.1 23 Norte 34 Norte 0 1011.6 -- 60
2020-07-18 15:00:00 27.9 24 Norte 32 Norte 0 1011.9 -- 63
2020-07-18 14:00:00 28.4 15 Norte 25 Norte 0 1012.2 -- 63
2020-07-18 13:00:00 27.5 14 Norte 24 Norte 0 1012.4 -- 65
2020-07-18 12:00:00 27.3 7 Nordeste 20 Noroeste 0 1012.4 -- 68
2020-07-18 11:00:00 24.6 13 Noroeste 21 Noroeste 0 1012.3 -- 80
2020-07-18 10:00:00 24.2 7 Oeste 13 Oeste 0 1011.9 -- 83
2020-07-18 09:00:00 23.2 7 Norte -- -- 0 1011.9 -- 91
2020-07-18 08:00:00 21.7 9 Nordeste 15 Nordeste 0 1011.6 -- 100
2020-07-18 07:00:00 20.6 7 Norte 15 Nordeste 0 1011 -- 100
2020-07-18 06:00:00 20.6 7 Nordeste 15 Nordeste 0 1010.7 -- 100
2020-07-18 05:00:00 20.5 4 Nordeste 9 Norte 0 1010.8 -- 100
2020-07-18 04:00:00 20.9 4 Norte 9 Norte 0 1011 -- 100
2020-07-18 03:00:00 21.3 2 Sudoeste 9 Noroeste 0 1011.6 -- 100
2020-07-18 02:00:00 21.7 3 Oeste 16 Norte 0 1012.1 -- 95
2020-07-18 01:00:00 21.8 9 Norte 16 Nordeste 0 1012.4 -- 93
2020-07-18 00:00:00 21.9 7 Nordeste 15 Norte 0 1012.7 -- 93
2020-07-17 23:00:00 22 7 Norte 17 Norte 0 1012.7 -- 92
2020-07-17 22:00:00 21.9 10 Norte -- -- 0 1012.1 -- 92
2020-07-17 21:00:00 22.4 7 Nordeste 18 Norte 0 1011.5 -- 88
2020-07-17 20:00:00 23 8 Noroeste 18 Noroeste 0 1011.4 -- 85
2020-07-17 19:00:00 24.2 10 Noroeste 21 Noroeste 0 1011.4 -- 77
2020-07-17 18:00:00 25.2 11 Noroeste 28 Oeste 0 1011.3 -- 72
2020-07-17 17:00:00 26.2 12 Norte 28 Norte 0 1011.5 -- 68
2020-07-17 16:00:00 25.9 14 Noroeste 27 Noroeste 0 1011.9 -- 68
2020-07-17 15:00:00 26 13 Noroeste 30 Noroeste 0 1012.1 -- 68
2020-07-17 14:00:00 26.8 11 Noroeste -- -- 0 1012.6 -- 66
2020-07-17 13:00:00 26.4 12 Norte 20 Norte 0 1012.8 -- 67
2020-07-17 12:00:00 25.1 10 Noroeste 17 Norte 0 1012.7 -- 71
2020-07-17 11:00:00 24.4 9 Noroeste 19 Norte 0 1013 -- 74
2020-07-17 10:00:00 22.6 9 Noroeste 15 Noroeste 0 1012.6 -- 84
2020-07-17 09:00:00 21.6 5 Oeste -- -- 0 1012.5 -- 89
2020-07-17 08:00:00 21.2 -- -- -- -- 0 1012.2 -- 93
2020-07-17 07:00:00 21.1 -- -- -- -- 0 1011.6 -- 93
2020-07-17 06:00:00 21.2 -- -- -- -- 0 1011.7 -- 94
2020-07-17 05:00:00 21.1 -- -- -- -- 0 1011.4 -- 94
2020-07-17 04:00:00 20.8 -- -- -- -- 0 1011.3 -- 94
2020-07-17 03:00:00 20.6 -- -- -- -- 0 1011.4 -- 94
2020-07-17 02:00:00 20.8 -- -- -- -- 0 1012 -- 94
2020-07-17 01:00:00 21.2 6 Norte 16 Norte 0 1012.5 -- 90
2020-07-17 00:00:00 21.4 10 Nordeste 15 Nordeste 0 1012.8 -- 90
2020-07-16 23:00:00 21.6 8 Norte 14 Noroeste 0 1012.9 -- 89
2020-07-16 22:00:00 21.9 4 Noroeste 14 Noroeste 0 1012.4 -- 86
2020-07-16 21:00:00 22.1 9 Noroeste 17 Oeste 0 1011.8 -- 85
2020-07-16 20:00:00 22.5 12 Oeste 19 Oeste 0 1011.7 -- 83
2020-07-16 19:00:00 23 12 Noroeste 21 Oeste 0 1011.5 -- 79
2020-07-16 18:00:00 23.5 11 Oeste 20 Oeste 0 1011.6 -- 76
2020-07-16 17:00:00 24.2 10 Noroeste 21 Noroeste 0 1011.8 -- 73
2020-07-16 16:00:00 25 17 Noroeste 27 Noroeste 0 1011.9 -- 70
2020-07-16 15:00:00 25.8 19 Noroeste 30 Noroeste 0 1011.8 -- 67
2020-07-16 14:00:00 26.1 13 Noroeste 25 Norte 0 1011.7 -- 66
2020-07-16 13:00:00 25.9 13 Norte 23 Noroeste 0 1011.9 -- 66
2020-07-16 12:00:00 25.2 13 Norte 32 Norte 0 1012 -- 69
2020-07-16 11:00:00 24 17 Nordeste 27 Nordeste 0 1011.8 -- 71
2020-07-16 10:00:00 22.6 13 Norte -- -- 0 1011.3 -- 81
2020-07-16 09:00:00 21.6 -- -- -- -- 0 1010.8 -- 87
2020-07-16 08:00:00 21.2 -- -- -- -- 0 1010.2 -- 88
2020-07-16 07:00:00 20.9 -- -- -- -- 0 1009.6 -- 90
2020-07-16 06:00:00 20.9 -- -- -- -- 0 1009.1 -- 89
2020-07-16 05:00:00 21.1 -- -- -- -- 0 1009.2 -- 89
2020-07-16 04:00:00 21.2 -- -- -- -- 0 1009 -- 89
2020-07-16 03:00:00 21.2 -- -- -- -- 0 1009.1 -- 87
2020-07-16 02:00:00 21.3 -- -- -- -- 0 1009.7 -- 88
2020-07-16 01:00:00 21.5 -- -- -- -- 0 1010 -- 88
2020-07-16 00:00:00 21.6 -- -- -- -- 0 1010.4 -- 85
2020-07-15 23:00:00 21.8 -- -- -- -- 0 1010.2 -- 84
2020-07-15 22:00:00 21.9 -- -- -- -- 0 1009.9 -- 84
2020-07-15 21:00:00 22 -- -- -- -- 0 1009.5 -- 83
2020-07-15 20:00:00 22.4 19 Norte 32 Nordeste 0 1009.1 -- 81
2020-07-15 19:00:00 22.8 24 Norte 36 Norte 0 1008.9 -- 78
2020-07-15 18:00:00 23.6 23 Nordeste 36 Nordeste 0 1009 -- 74
2020-07-15 17:00:00 24.1 28 Nordeste 40 Norte 0 1009.2 -- 73
2020-07-15 16:00:00 24 27 Nordeste 40 Nordeste 0 1009.2 -- 76
2020-07-15 15:00:00 24.4 26 Norte 41 Norte 0 1009.2 -- 73
2020-07-15 14:00:00 24.6 23 Norte 41 Nordeste 0 1009.4 -- 72
2020-07-15 13:00:00 24.5 26 Nordeste 37 Nordeste 0 1009.7 -- 74
2020-07-15 12:00:00 23.9 27 Norte -- -- 0 1009.5 -- 76
2020-07-15 11:00:00 23.6 -- -- -- -- 0 1009.5 -- 78
2020-07-15 10:00:00 22.9 -- -- -- -- 0 1009.3 -- 84
2020-07-15 09:00:00 22.5 -- -- -- -- 0 1008.9 -- 86
2020-07-15 08:00:00 21.9 -- -- -- -- 0 1008.4 -- 92
2020-07-15 07:00:00 21.6 -- -- -- -- 0 1007.9 -- 94
2020-07-15 06:00:00 21.7 -- -- -- -- 0 1007.7 -- 92
2020-07-15 05:00:00 21.7 -- -- -- -- 0 1008 -- 92
2020-07-15 04:00:00 21.6 -- -- -- -- 0 1008.3 -- 93
2020-07-15 03:00:00 21.7 -- -- -- -- 0 1008.9 -- 94
2020-07-15 02:00:00 21.6 -- -- -- -- 0 1009.5 -- 94
2020-07-15 01:00:00 21.6 -- -- -- -- 0 1010.4 -- 95
2020-07-15 00:00:00 21.3 -- -- -- -- 0 1010.4 -- 89
2020-07-14 23:00:00 21.9 -- -- -- -- 0 1010.4 -- 90
2020-07-14 22:00:00 21.9 -- -- -- -- 0 1010.1 -- 88
2020-07-14 21:00:00 22.2 -- -- -- -- 0 1009.9 -- 90
2020-07-14 20:00:00 23.1 18 Norte 31 Norte 0 1009.8 -- 83
2020-07-14 19:00:00 24.6 21 Norte 36 Norte 0 1009.9 -- 76
2020-07-14 18:00:00 25.2 21 Noroeste 35 Norte 0 1010 -- 72
2020-07-14 17:00:00 25.8 24 Noroeste 35 Norte 0 1010.4 -- 70
2020-07-14 16:00:00 25.4 22 Norte 33 Norte 0 1010.8 -- 70
2020-07-14 15:00:00 25.5 22 Noroeste 33 Norte 0 1011.2 -- 69
2020-07-14 14:00:00 24.9 23 Noroeste 35 Noroeste 0 1011.8 -- 71
2020-07-14 13:00:00 25 19 Noroeste 36 Norte 0 1012.3 -- 70
2020-07-14 12:00:00 25 21 Norte 38 Norte 0 1012.5 -- 69
2020-07-14 11:00:00 23.7 22 Norte -- -- 0 1012.6 -- 74
2020-07-14 10:00:00 22.6 -- -- -- -- 0 1012.5 -- 79
2020-07-14 09:00:00 21.9 -- -- -- -- 0 1012.5 -- 80
2020-07-14 08:00:00 21.3 -- -- -- -- 0 1012.5 -- 82
2020-07-14 07:00:00 21.2 -- -- -- -- 0 1012.5 -- 81
2020-07-14 06:00:00 21.2 -- -- -- -- 0 1012.8 -- 81
2020-07-14 05:00:00 21.2 -- -- -- -- 0 1012.9 -- 79
2020-07-14 04:00:00 21.2 -- -- -- -- 0 1013.4 -- 80
2020-07-14 03:00:00 21.3 -- -- -- -- 0 1013.7 -- 81
2020-07-14 02:00:00 21.3 -- -- -- -- 0 1014.4 -- 81
2020-07-14 01:00:00 21.4 -- -- -- -- 0 1015.1 -- 81
2020-07-14 00:00:00 21.5 -- -- -- -- 0 1015.2 -- 81
2020-07-13 23:00:00 21.7 -- -- -- -- 0 1015.3 -- 81
2020-07-13 22:00:00 21.7 -- -- -- -- 0 1015 -- 80
2020-07-13 21:00:00 22 -- -- -- -- 0 1014.5 0.1 79
2020-07-13 20:00:00 22.6 19 Norte 31 Norte 0 1014.4 -0.3 77
2020-07-13 19:00:00 23.5 21 Norte 34 Nordeste 0 1014.3 -0.7 72
2020-07-13 18:00:00 23.6 24 Nordeste 39 Nordeste 0 1014.4 -0.9 72
2020-07-13 17:00:00 24.7 25 Norte 36 Norte 0 1014.7 -1 66
2020-07-13 16:00:00 25.2 23 Norte 38 Nordeste 0 1015 -1.2 65
2020-07-13 15:00:00 25.1 23 Norte 36 Nordeste 0 1015.3 -0.9 65
2020-07-13 14:00:00 24.3 26 Nordeste 36 Nordeste 0 1015.7 -0.4 68
2020-07-13 13:00:00 24.8 24 Nordeste 36 Nordeste 0 1016.2 0.4 67
2020-07-13 12:00:00 24.7 23 Nordeste -- -- 0 1016.2 0.6 68
2020-07-13 11:00:00 23.4 -- -- -- -- 0 1016.1 0.7 73
2020-07-13 10:00:00 22.3 -- -- -- -- 0 1015.8 0.9 76
2020-07-13 09:00:00 21.7 -- -- -- -- 0 1015.6 1.3 80
2020-07-13 08:00:00 21.1 -- -- -- -- 0 1015.4 1.2 85
2020-07-13 07:00:00 20.7 -- -- -- -- 0 1014.9 0.9 87
2020-07-13 06:00:00 20.9 -- -- -- -- 0 1014.3 -- 89
2020-07-13 05:00:00 20.9 -- -- -- -- 0 1014.2 -0.3 87
2020-07-13 04:00:00 20.9 -- -- -- -- 0 1014 -0.8 88
2020-07-13 03:00:00 21.1 -- -- -- -- 0 1014 -1.1 89
2020-07-13 02:00:00 21.1 -- -- -- -- 0 1014.5 -0.5 87
2020-07-13 01:00:00 21.3 -- -- -- -- 0 1014.8 0.2 86
2020-07-13 00:00:00 21.4 -- -- -- -- 0 1015.1 0.9 85
2020-07-12 23:00:00 21.5 -- -- -- -- 0 1015 1.2 85
2020-07-12 22:00:00 21.7 -- -- -- -- 0 1014.6 1.4 83
2020-07-12 21:00:00 21.9 -- -- -- -- 0 1014.2 1.2 83
2020-07-12 20:00:00 22.4 -- -- -- -- 0 1013.8 0.9 79
2020-07-12 19:00:00 23.2 18 Norte 30 Norte 0 1013.2 0.2 76
2020-07-12 18:00:00 23.9 20 Norte 37 Norte 0 1013 0.5 74
2020-07-12 17:00:00 24.4 23 Norte -- -- 0 1012.9 -0.5 72
2020-07-12 16:00:00 25 -- -- -- -- 0 1013 -0.5 69
2020-07-12 15:00:00 25.4 -- -- -- -- 0 1012.5 -0.8 67
2020-07-12 14:00:00 24.6 -- -- -- -- 0 1013.4 -- 70
2020-07-12 13:00:00 24.7 -- -- -- -- 0 1013.5 0.9 69
2020-07-12 12:00:00 24.5 -- -- -- -- 0 1013.3 -- 71
2020-07-12 11:00:00 23.5 -- -- -- -- 0 1013 -- 74
2020-07-12 10:00:00 22.7 -- -- -- -- 0 1012.6 -- 81
2020-07-12 09:00:00 21.8 -- -- -- -- 0 1012.3 1.7 85
2020-07-12 08:00:00 21.2 -- -- -- -- 0 1011.6 -- 91
2020-07-12 07:00:00 20.7 -- -- -- -- 0 1011.1 -- 93
2020-07-12 06:00:00 20.8 -- -- -- -- 0 1010.6 -- 92
2020-07-12 05:00:00 20.8 -- -- -- -- 0 1010.2 -- 94
2020-07-12 04:00:00 20.8 -- -- -- -- 0 1010.4 -- 93
2020-07-12 03:00:00 20.8 -- -- -- -- 0 1010.5 -- 93
2020-07-12 02:00:00 21 -- -- -- -- 0 1010.8 -- 90
2020-07-12 01:00:00 21.1 -- -- -- -- 0 1011.1 -- 89
2020-07-12 00:00:00 21.2 -- -- -- -- 0 1011.3 -- 87
2020-07-11 23:00:00 21.4 -- -- -- -- 0 1011.3 -- 87
2020-07-11 22:00:00 21.5 25 Norte -- -- 0 1011.2 -- 84
2020-07-11 21:00:00 21.8 21 Norte 34 Nordeste 0 1010.3 -- 85
2020-07-11 20:00:00 22.5 23 Norte 35 Norte 0 1010.2 -- 79
2020-07-11 19:00:00 23.3 24 Norte 37 Norte 0 1009.6 -- 76
2020-07-11 18:00:00 24.2 23 Norte -- -- 0 1009.5 -0.8 73
2020-07-11 17:00:00 25.1 -- -- -- -- 0 1009.7 -- 68
2020-07-11 16:00:00 24.8 -- -- -- -- 0 1010 -- 70
2020-07-11 15:00:00 24.9 -- -- -- -- 0 1010.3 -- 70
2020-07-11 14:00:00 24.5 -- -- -- -- 0 1010.5 -- 70
2020-07-11 13:00:00 24.7 -- -- -- -- 0 1010.7 -- 69
2020-07-11 12:00:00 24.2 -- -- -- -- 0 1010.6 -- 70
2020-07-11 11:00:00 23.3 -- -- -- -- 0 1010.6 -- 73
2020-07-11 10:00:00 22.7 -- -- -- -- 0 1010.2 -- 77
2020-07-11 09:00:00 21.9 -- -- -- -- 0 1010 -- 80
2020-07-11 08:00:00 21.3 -- -- -- -- 0 1009.8 -- 86
2020-07-11 07:00:00 21 -- -- -- -- 0 1009.7 -- 88
2020-07-11 06:00:00 21 -- -- -- -- 0 1009.4 -- 86
2020-07-11 05:00:00 21.1 -- -- -- -- 0 1009.3 -- 87
2020-07-11 04:00:00 21 -- -- -- -- 0 1009.4 -- 87
2020-07-11 03:00:00 21.1 -- -- -- -- 0 1009.8 -- 85
2020-07-11 02:00:00 21.2 -- -- -- -- 0 1009.9 -- 87
2020-07-11 01:00:00 21.2 -- -- -- -- 0 1010.4 0.2 85
2020-07-11 00:00:00 21.4 -- -- -- -- 0 1010.6 -- 86
2020-07-10 23:00:00 21.4 -- -- -- -- 0 1010.6 -- 84
2020-07-10 22:00:00 21.7 -- -- -- -- 0 1010.2 -- 81
2020-07-10 21:00:00 22 -- -- -- -- 0 1010 -- 80
2020-07-10 20:00:00 22.7 -- -- -- -- 0 1009.6 -- 79
2020-07-10 19:00:00 23.4 -- -- -- -- 0 1009.7 -- 72
2020-07-10 18:00:00 23.7 -- -- -- -- 0 1009.8 -- 72
2020-07-10 17:00:00 24.3 26 Nordeste 39 Nordeste 0 1009.9 -- 70
2020-07-10 16:00:00 24.8 24 Norte -- -- 0 1010.4 -- 66
2020-07-10 15:00:00 24.5 -- -- -- -- 0 1010.7 -- 68
2020-07-10 14:00:00 24.3 -- -- -- -- 0 1011.1 -- 68
2020-07-10 13:00:00 24.5 -- -- -- -- 0 1011.5 -0.2 67
2020-07-10 12:00:00 23.8 -- -- -- -- 0 1011.6 -- 71
2020-07-10 11:00:00 22.8 -- -- -- -- 0 1011.7 -- 74
2020-07-10 10:00:00 22.4 -- -- -- -- 0 1011.7 0 75
2020-07-10 09:00:00 22.1 -- -- -- -- 0 1011.8 -- 76
2020-07-10 08:00:00 21.5 -- -- -- -- 0 1011.6 -- 78
2020-07-10 07:00:00 21.1 -- -- -- -- 0 1011.7 -- 77
2020-07-10 06:00:00 21 -- -- -- -- 0 1011.8 -- 75
2020-07-10 05:00:00 21.1 -- -- -- -- 0 1011.8 -- 77
2020-07-10 04:00:00 21.2 -- -- -- -- 0 1012.2 -- 78
2020-07-10 03:00:00 21.2 -- -- -- -- 0 1012.7 -- 77
2020-07-10 02:00:00 21.2 -- -- -- -- 0 1013.5 -- 75
2020-07-10 01:00:00 21.3 -- -- -- -- 0 1014.1 -- 77
2020-07-10 00:00:00 21.4 -- -- -- -- 0 1014.6 -- 76
2020-07-09 23:00:00 21.7 -- -- -- -- 0 1014.4 -- 75
2020-07-09 22:00:00 21.6 -- -- -- -- 0 1014.2 -- 74
2020-07-09 21:00:00 21.8 -- -- -- -- 0 1013.9 -- 74
2020-07-09 20:00:00 22.4 25 Norte -- -- 0 1013.7 -- 72
2020-07-09 19:00:00 23.4 -- -- -- -- 0 1013.8 -- 68
2020-07-09 18:00:00 23.4 -- -- -- -- 0 1014.2 -- 68
2020-07-09 17:00:00 23.9 30 Nordeste 43 Nordeste 0 1014.6 -- 66
2020-07-09 16:00:00 24.2 26 Nordeste 41 Norte 0 1014.8 -- 67
2020-07-09 15:00:00 25.2 29 Nordeste 44 Nordeste 0 1015.2 -- 62
2020-07-09 14:00:00 24.9 29 Norte 42 Nordeste 0 1015.6 -- 64
2020-07-09 13:00:00 24.6 30 Nordeste 43 Nordeste 0 1016 -- 64
2020-07-09 12:00:00 24 31 Nordeste -- -- 0 1015.9 -- 68
2020-07-09 11:00:00 23.4 -- -- -- -- 0 1015.6 -- 70
2020-07-09 10:00:00 22.4 -- -- -- -- 0 1015.5 -- 75
2020-07-09 09:00:00 21.6 30 Nordeste 41 Nordeste 0 1015.3 -- 79
2020-07-09 08:00:00 20.9 26 Nordeste 37 Nordeste 0 1014.9 -- 85
2020-07-09 07:00:00 20.7 21 Norte 34 Norte 0 1014.5 -- 90
2020-07-09 06:00:00 20.7 24 Norte 35 Nordeste 0 1014.3 -- 90
2020-07-09 05:00:00 20.8 26 Norte 35 Nordeste 0 1014.3 -- 90
2020-07-09 04:00:00 20.7 22 Nordeste 34 Norte 0 1014.1 -- 92
2020-07-09 03:00:00 21 21 Norte 33 Norte 0 1014.2 -- 95
2020-07-09 02:00:00 20.9 21 Nordeste 33 Nordeste 0 1014.4 -- 96
2020-07-09 01:00:00 21.1 21 Nordeste 31 Nordeste 0 1014.8 -- 97
2020-07-09 00:00:00 21.3 21 Norte 30 Norte 0 1015.2 -- 97
2020-07-08 23:00:00 21.5 20 Norte 32 Norte 0 1015.1 -- 98
2020-07-08 22:00:00 21.6 21 Norte 29 Nordeste 0 1014.6 -- 96
2020-07-08 21:00:00 22 16 Norte -- -- 0 1014.3 -- 93
2020-07-08 20:00:00 22.8 -- -- -- -- 0 1014 -- 86
2020-07-08 19:00:00 23.7 26 Nordeste 36 Nordeste 0 1013.6 -- 80
2020-07-08 18:00:00 24.6 27 Nordeste 42 Nordeste 0 1013.6 -- 76
2020-07-08 17:00:00 25.3 32 Nordeste 45 Nordeste 0 1013.5 -- 71
2020-07-08 16:00:00 26.3 31 Nordeste -- -- 0 1013.8 -- 67
2020-07-08 15:00:00 25.9 32 Nordeste -- -- 0 1014.3 -- 68
2020-07-08 14:00:00 26.1 -- -- -- -- 0 1014.5 -- 68
2020-07-08 13:00:00 26.4 -- -- -- -- 0 1014.8 -- 68
2020-07-08 12:00:00 25.8 -- -- -- -- 0 1014.8 -- 70
2020-07-08 11:00:00 24.9 -- -- -- -- 0 1014.4 -- 75
2020-07-08 10:00:00 23.8 15 Norte 26 Norte 0 1014.1 -- 82
2020-07-08 09:00:00 22.9 9 Norte 15 Norte 0 1013.9 -- 97
2020-07-08 08:00:00 21.5 8 Norte 18 Nordeste 0 1013.2 -- 100
2020-07-08 07:00:00 21.1 14 Norte 21 Norte 0 1012.6 -- 100
2020-07-08 06:00:00 21.4 15 Norte 21 Norte 0 1012.2 -- 100
2020-07-08 05:00:00 21.2 14 Norte -- -- 0 1011.9 -- 100
2020-07-08 04:00:00 21.4 13 Nordeste 17 Nordeste 0 1011.9 -- 100
2020-07-08 03:00:00 21.7 9 Norte 19 Norte 0 1012 -- 100
2020-07-08 02:00:00 21.8 11 Norte 19 Noroeste 0 1012.6 -- 100
2020-07-08 01:00:00 22.1 8 Norte 19 Norte 0 1013.2 -- 100
2020-07-08 00:00:00 22.2 6 Noroeste 17 Norte 0 1013.2 -- 100
2020-07-07 23:00:00 22.4 7 Noroeste 10 Oeste 0 1013 -- 100
2020-07-07 22:00:00 22.5 7 Noroeste 13 Noroeste 0 1012.7 -- 100
2020-07-07 21:00:00 22.8 13 Noroeste 17 Noroeste 0 1012 -- 99
2020-07-07 20:00:00 23.5 12 Noroeste 18 Noroeste 0 1011.5 -- 93
2020-07-07 19:00:00 24.5 14 Noroeste 22 Noroeste 0 1011.3 0 84
2020-07-07 18:00:00 25.1 15 Noroeste 22 Oeste 0 1011.2 -0.3 80
2020-07-07 17:00:00 25.9 14 Noroeste 21 Noroeste 0 1011 -0.7 76
2020-07-07 16:00:00 26.1 12 Noroeste 20 Oeste 0 1011.3 -0.5 75
2020-07-07 15:00:00 25.4 13 Noroeste 25 Oeste 0 1011.5 -0.4 78
2020-07-07 14:00:00 25.9 13 Oeste 21 Sudoeste 0 1011.7 0.2 76
2020-07-07 13:00:00 24.7 15 Sur -- -- 0 1011.8 0.5 84
2020-07-07 12:00:00 23.6 -- -- -- -- 0 1011.9 1.1 95
2020-07-07 11:00:00 22.7 -- -- -- -- 0 1011.5 1.5 100
2020-07-07 10:00:00 22 -- -- -- -- 0 1011.3 1.7 --
2020-07-07 09:00:00 21.8 -- -- -- -- 0 1010.8 1.7 --
2020-07-07 08:00:00 21.6 -- -- -- -- 0 1010 0.9 --
2020-07-07 07:00:00 21.6 -- -- -- -- 0 1009.6 0.4 --
2020-07-07 06:00:00 21.5 -- -- -- -- 0 1009.1 -- --
2020-07-07 05:00:00 21.3 -- -- -- -- 0 1009.1 -- --
2020-07-07 04:00:00 21.4 -- -- -- -- 0 1009.2 -- --
2020-07-07 03:00:00 21.4 -- -- -- -- 0 1009.2 -- --
2020-07-07 02:00:00 21.2 -- -- -- -- 0 1009.6 -- 100
2020-07-07 01:00:00 21.3 -- -- -- -- 0 1010.3 -- 100
2020-07-07 00:00:00 21.6 -- -- -- -- 0 1010.5 -- 100